sensor_id;sensor_type;location;lat;lon;timestamp;P1;durP1;ratioP1;P2;durP2;ratioP2
8040;SDS011;4063;48.140;10.250;2023-12-29T00:00:54;5.63;;;4.43;;
8040;SDS011;4063;48.140;10.250;2023-12-29T00:03:20;5.10;;;4.23;;
8040;SDS011;4063;48.140;10.250;2023-12-29T00:05:48;5.70;;;4.50;;
8040;SDS011;4063;48.140;10.250;2023-12-29T00:08:14;4.47;;;4.07;;
8040;SDS011;4063;48.140;10.250;2023-12-29T00:10:43;6.53;;;4.03;;
8040;SDS011;4063;48.140;10.250;2023-12-29T00:13:10;5.57;;;4.43;;
8040;SDS011;4063;48.140;10.250;2023-12-29T00:15:36;5.07;;;4.30;;
8040;SDS011;4063;48.140;10.250;2023-12-29T00:18:04;6.17;;;4.83;;
8040;SDS011;4063;48.140;10.250;2023-12-29T00:20:30;6.17;;;4.63;;
8040;SDS011;4063;48.140;10.250;2023-12-29T00:22:56;6.77;;;4.40;;
8040;SDS011;4063;48.140;10.250;2023-12-29T00:25:23;5.37;;;4.80;;
8040;SDS011;4063;48.140;10.250;2023-12-29T00:27:52;6.00;;;4.47;;
8040;SDS011;4063;48.140;10.250;2023-12-29T00:30:18;7.33;;;4.60;;
8040;SDS011;4063;48.140;10.250;2023-12-29T00:32:51;7.43;;;4.90;;
8040;SDS011;4063;48.140;10.250;2023-12-29T00:35:22;6.43;;;4.47;;
8040;SDS011;4063;48.140;10.250;2023-12-29T00:37:50;6.90;;;4.47;;
8040;SDS011;4063;48.140;10.250;2023-12-29T00:40:19;4.73;;;4.33;;
8040;SDS011;4063;48.140;10.250;2023-12-29T00:42:52;5.30;;;4.63;;
8040;SDS011;4063;48.140;10.250;2023-12-29T00:45:18;6.73;;;4.67;;
8040;SDS011;4063;48.140;10.250;2023-12-29T00:47:48;6.73;;;4.90;;
8040;SDS011;4063;48.140;10.250;2023-12-29T00:50:22;5.33;;;4.83;;
8040;SDS011;4063;48.140;10.250;2023-12-29T00:52:48;6.77;;;5.10;;
8040;SDS011;4063;48.140;10.250;2023-12-29T00:55:14;6.67;;;5.07;;
8040;SDS011;4063;48.140;10.250;2023-12-29T00:57:41;10.10;;;5.80;;
8040;SDS011;4063;48.140;10.250;2023-12-29T01:00:11;6.63;;;4.60;;
8040;SDS011;4063;48.140;10.250;2023-12-29T01:02:38;5.50;;;4.73;;
8040;SDS011;4063;48.140;10.250;2023-12-29T01:05:04;6.37;;;4.90;;
8040;SDS011;4063;48.140;10.250;2023-12-29T01:07:30;5.10;;;4.13;;
8040;SDS011;4063;48.140;10.250;2023-12-29T01:09:56;5.70;;;4.80;;
8040;SDS011;4063;48.140;10.250;2023-12-29T01:12:30;6.03;;;4.63;;
8040;SDS011;4063;48.140;10.250;2023-12-29T01:14:59;6.73;;;5.07;;
8040;SDS011;4063;48.140;10.250;2023-12-29T01:17:25;7.73;;;4.80;;
8040;SDS011;4063;48.140;10.250;2023-12-29T01:19:53;6.47;;;5.00;;
8040;SDS011;4063;48.140;10.250;2023-12-29T01:22:19;6.37;;;4.57;;
8040;SDS011;4063;48.140;10.250;2023-12-29T01:24:45;6.27;;;4.57;;
8040;SDS011;4063;48.140;10.250;2023-12-29T01:27:11;5.63;;;4.70;;
8040;SDS011;4063;48.140;10.250;2023-12-29T01:29:40;5.23;;;4.17;;
8040;SDS011;4063;48.140;10.250;2023-12-29T01:32:09;5.97;;;4.03;;
8040;SDS011;4063;48.140;10.250;2023-12-29T01:34:35;5.20;;;4.70;;
8040;SDS011;4063;48.140;10.250;2023-12-29T01:37:07;6.00;;;4.67;;
8040;SDS011;4063;48.140;10.250;2023-12-29T01:39:33;9.07;;;4.77;;
8040;SDS011;4063;48.140;10.250;2023-12-29T01:42:02;4.67;;;3.77;;
8040;SDS011;4063;48.140;10.250;2023-12-29T01:44:32;5.23;;;4.73;;
8040;SDS011;4063;48.140;10.250;2023-12-29T01:47:01;5.73;;;4.70;;
8040;SDS011;4063;48.140;10.250;2023-12-29T01:49:32;4.93;;;4.00;;
8040;SDS011;4063;48.140;10.250;2023-12-29T01:51:58;5.80;;;4.50;;
8040;SDS011;4063;48.140;10.250;2023-12-29T01:54:28;6.40;;;3.47;;
8040;SDS011;4063;48.140;10.250;2023-12-29T01:56:58;7.57;;;4.10;;
8040;SDS011;4063;48.140;10.250;2023-12-29T01:59:28;5.33;;;4.30;;
8040;SDS011;4063;48.140;10.250;2023-12-29T02:01:56;6.63;;;4.47;;
8040;SDS011;4063;48.140;10.250;2023-12-29T02:04:25;5.27;;;3.87;;
8040;SDS011;4063;48.140;10.250;2023-12-29T02:06:51;5.47;;;3.77;;
8040;SDS011;4063;48.140;10.250;2023-12-29T02:09:17;5.83;;;3.90;;
8040;SDS011;4063;48.140;10.250;2023-12-29T02:11:47;4.83;;;3.83;;
8040;SDS011;4063;48.140;10.250;2023-12-29T02:14:14;5.57;;;4.50;;
8040;SDS011;4063;48.140;10.250;2023-12-29T02:21:48;4.93;;;3.70;;
8040;SDS011;4063;48.140;10.250;2023-12-29T02:24:17;5.07;;;3.57;;
8040;SDS011;4063;48.140;10.250;2023-12-29T02:26:47;4.27;;;3.87;;
8040;SDS011;4063;48.140;10.250;2023-12-29T02:29:19;5.90;;;4.07;;
8040;SDS011;4063;48.140;10.250;2023-12-29T02:31:49;4.67;;;3.97;;
8040;SDS011;4063;48.140;10.250;2023-12-29T02:34:21;4.17;;;3.80;;
8040;SDS011;4063;48.140;10.250;2023-12-29T02:36:50;4.87;;;4.23;;
8040;SDS011;4063;48.140;10.250;2023-12-29T02:39:40;5.83;;;4.20;;
8040;SDS011;4063;48.140;10.250;2023-12-29T02:42:09;5.83;;;4.20;;
8040;SDS011;4063;48.140;10.250;2023-12-29T02:44:35;4.83;;;4.33;;
8040;SDS011;4063;48.140;10.250;2023-12-29T02:47:01;5.23;;;3.93;;
8040;SDS011;4063;48.140;10.250;2023-12-29T02:49:29;5.80;;;3.77;;
8040;SDS011;4063;48.140;10.250;2023-12-29T02:52:00;5.73;;;3.80;;
8040;SDS011;4063;48.140;10.250;2023-12-29T02:54:28;6.00;;;4.00;;
8040;SDS011;4063;48.140;10.250;2023-12-29T02:56:57;5.43;;;3.80;;
8040;SDS011;4063;48.140;10.250;2023-12-29T02:59:23;5.07;;;4.03;;
8040;SDS011;4063;48.140;10.250;2023-12-29T03:01:49;4.67;;;3.90;;
8040;SDS011;4063;48.140;10.250;2023-12-29T03:04:15;4.53;;;4.07;;
8040;SDS011;4063;48.140;10.250;2023-12-29T03:06:41;6.27;;;3.83;;
8040;SDS011;4063;48.140;10.250;2023-12-29T03:09:14;5.17;;;3.43;;
8040;SDS011;4063;48.140;10.250;2023-12-29T03:11:43;3.97;;;3.27;;
8040;SDS011;4063;48.140;10.250;2023-12-29T03:14:09;4.00;;;3.33;;
8040;SDS011;4063;48.140;10.250;2023-12-29T03:16:36;5.10;;;3.70;;
8040;SDS011;4063;48.140;10.250;2023-12-29T03:19:05;5.13;;;3.20;;
8040;SDS011;4063;48.140;10.250;2023-12-29T03:21:33;4.30;;;3.30;;
8040;SDS011;4063;48.140;10.250;2023-12-29T03:23:59;4.87;;;3.57;;
8040;SDS011;4063;48.140;10.250;2023-12-29T03:26:28;4.50;;;3.47;;
8040;SDS011;4063;48.140;10.250;2023-12-29T03:28:57;4.43;;;3.20;;
8040;SDS011;4063;48.140;10.250;2023-12-29T03:31:26;6.00;;;3.10;;
8040;SDS011;4063;48.140;10.250;2023-12-29T03:33:52;3.43;;;2.93;;
8040;SDS011;4063;48.140;10.250;2023-12-29T03:36:20;4.50;;;3.60;;
8040;SDS011;4063;48.140;10.250;2023-12-29T03:38:49;4.63;;;3.50;;
8040;SDS011;4063;48.140;10.250;2023-12-29T03:41:18;6.43;;;3.10;;
8040;SDS011;4063;48.140;10.250;2023-12-29T03:43:44;3.77;;;2.87;;
8040;SDS011;4063;48.140;10.250;2023-12-29T03:46:19;4.53;;;3.20;;
8040;SDS011;4063;48.140;10.250;2023-12-29T03:48:48;4.40;;;3.60;;
8040;SDS011;4063;48.140;10.250;2023-12-29T03:51:17;5.20;;;3.00;;
8040;SDS011;4063;48.140;10.250;2023-12-29T03:53:43;4.30;;;2.97;;
8040;SDS011;4063;48.140;10.250;2023-12-29T03:56:13;4.50;;;3.13;;
8040;SDS011;4063;48.140;10.250;2023-12-29T03:58:43;3.67;;;3.07;;
8040;SDS011;4063;48.140;10.250;2023-12-29T04:01:12;4.70;;;3.30;;
8040;SDS011;4063;48.140;10.250;2023-12-29T04:03:38;5.07;;;3.27;;
8040;SDS011;4063;48.140;10.250;2023-12-29T04:06:07;6.20;;;3.67;;
8040;SDS011;4063;48.140;10.250;2023-12-29T04:08:44;4.77;;;3.47;;
8040;SDS011;4063;48.140;10.250;2023-12-29T04:11:12;4.07;;;3.37;;
8040;SDS011;4063;48.140;10.250;2023-12-29T04:13:38;4.00;;;3.33;;
8040;SDS011;4063;48.140;10.250;2023-12-29T04:16:04;5.20;;;3.60;;
8040;SDS011;4063;48.140;10.250;2023-12-29T04:18:33;3.57;;;3.20;;
8040;SDS011;4063;48.140;10.250;2023-12-29T04:20:59;4.07;;;3.40;;
8040;SDS011;4063;48.140;10.250;2023-12-29T04:23:28;6.70;;;3.20;;
8040;SDS011;4063;48.140;10.250;2023-12-29T04:25:54;4.13;;;3.20;;
8040;SDS011;4063;48.140;10.250;2023-12-29T04:28:20;3.97;;;3.13;;
8040;SDS011;4063;48.140;10.250;2023-12-29T04:30:49;3.67;;;3.07;;
8040;SDS011;4063;48.140;10.250;2023-12-29T04:33:15;5.13;;;3.43;;
8040;SDS011;4063;48.140;10.250;2023-12-29T04:35:41;3.60;;;3.10;;
8040;SDS011;4063;48.140;10.250;2023-12-29T04:38:07;4.53;;;3.33;;
8040;SDS011;4063;48.140;10.250;2023-12-29T04:40:35;7.87;;;3.40;;
8040;SDS011;4063;48.140;10.250;2023-12-29T04:43:04;4.87;;;3.30;;
8040;SDS011;4063;48.140;10.250;2023-12-29T04:45:30;4.30;;;3.50;;
8040;SDS011;4063;48.140;10.250;2023-12-29T04:48:01;5.47;;;3.50;;
8040;SDS011;4063;48.140;10.250;2023-12-29T04:50:27;3.70;;;3.23;;
8040;SDS011;4063;48.140;10.250;2023-12-29T04:52:56;4.73;;;3.03;;
8040;SDS011;4063;48.140;10.250;2023-12-29T04:55:24;3.47;;;3.17;;
8040;SDS011;4063;48.140;10.250;2023-12-29T04:57:53;3.60;;;3.00;;
8040;SDS011;4063;48.140;10.250;2023-12-29T05:00:19;3.87;;;3.10;;
8040;SDS011;4063;48.140;10.250;2023-12-29T05:02:48;6.37;;;3.57;;
8040;SDS011;4063;48.140;10.250;2023-12-29T05:05:16;4.77;;;3.23;;
8040;SDS011;4063;48.140;10.250;2023-12-29T05:07:42;5.00;;;3.13;;
8040;SDS011;4063;48.140;10.250;2023-12-29T05:10:08;3.80;;;2.80;;
8040;SDS011;4063;48.140;10.250;2023-12-29T05:12:38;3.73;;;3.00;;
8040;SDS011;4063;48.140;10.250;2023-12-29T05:15:07;5.20;;;3.23;;
8040;SDS011;4063;48.140;10.250;2023-12-29T05:17:35;4.93;;;3.57;;
8040;SDS011;4063;48.140;10.250;2023-12-29T05:20:02;3.93;;;2.83;;
8040;SDS011;4063;48.140;10.250;2023-12-29T05:22:28;4.57;;;3.13;;
8040;SDS011;4063;48.140;10.250;2023-12-29T05:24:54;5.57;;;3.27;;
8040;SDS011;4063;48.140;10.250;2023-12-29T05:27:24;3.00;;;2.80;;
8040;SDS011;4063;48.140;10.250;2023-12-29T05:29:53;5.07;;;2.80;;
8040;SDS011;4063;48.140;10.250;2023-12-29T05:32:22;3.83;;;2.97;;
8040;SDS011;4063;48.140;10.250;2023-12-29T05:34:48;7.23;;;3.53;;
8040;SDS011;4063;48.140;10.250;2023-12-29T05:37:14;4.20;;;3.37;;
8040;SDS011;4063;48.140;10.250;2023-12-29T05:39:43;3.23;;;2.93;;
8040;SDS011;4063;48.140;10.250;2023-12-29T05:42:14;3.67;;;3.13;;
8040;SDS011;4063;48.140;10.250;2023-12-29T05:44:42;4.70;;;3.13;;
8040;SDS011;4063;48.140;10.250;2023-12-29T05:47:13;4.03;;;3.20;;
8040;SDS011;4063;48.140;10.250;2023-12-29T05:49:41;4.50;;;3.40;;
8040;SDS011;4063;48.140;10.250;2023-12-29T05:52:07;3.10;;;2.77;;
8040;SDS011;4063;48.140;10.250;2023-12-29T05:54:34;4.50;;;3.00;;
8040;SDS011;4063;48.140;10.250;2023-12-29T05:57:02;4.77;;;3.07;;
8040;SDS011;4063;48.140;10.250;2023-12-29T05:59:31;5.67;;;3.50;;
8040;SDS011;4063;48.140;10.250;2023-12-29T06:01:57;3.30;;;3.00;;
8040;SDS011;4063;48.140;10.250;2023-12-29T06:04:23;3.67;;;2.80;;
8040;SDS011;4063;48.140;10.250;2023-12-29T06:06:57;3.47;;;3.17;;
8040;SDS011;4063;48.140;10.250;2023-12-29T06:09:53;4.70;;;3.27;;
8040;SDS011;4063;48.140;10.250;2023-12-29T06:12:19;4.23;;;3.00;;
8040;SDS011;4063;48.140;10.250;2023-12-29T06:14:45;4.67;;;2.77;;
8040;SDS011;4063;48.140;10.250;2023-12-29T06:17:11;3.10;;;2.87;;
8040;SDS011;4063;48.140;10.250;2023-12-29T06:19:43;3.93;;;3.13;;
8040;SDS011;4063;48.140;10.250;2023-12-29T06:22:11;6.13;;;3.23;;
8040;SDS011;4063;48.140;10.250;2023-12-29T06:24:57;3.70;;;3.40;;
8040;SDS011;4063;48.140;10.250;2023-12-29T06:27:26;4.07;;;3.10;;
8040;SDS011;4063;48.140;10.250;2023-12-29T06:29:58;4.27;;;3.10;;
8040;SDS011;4063;48.140;10.250;2023-12-29T06:32:27;5.50;;;2.93;;
8040;SDS011;4063;48.140;10.250;2023-12-29T06:34:58;4.57;;;3.07;;
8040;SDS011;4063;48.140;10.250;2023-12-29T06:37:27;3.30;;;3.00;;
8040;SDS011;4063;48.140;10.250;2023-12-29T06:40:01;3.97;;;3.13;;
8040;SDS011;4063;48.140;10.250;2023-12-29T06:42:27;5.47;;;3.67;;
8040;SDS011;4063;48.140;10.250;2023-12-29T06:44:55;3.97;;;3.57;;
8040;SDS011;4063;48.140;10.250;2023-12-29T06:47:21;5.27;;;3.43;;
8040;SDS011;4063;48.140;10.250;2023-12-29T06:49:53;4.73;;;3.20;;
8040;SDS011;4063;48.140;10.250;2023-12-29T06:52:24;3.90;;;3.40;;
8040;SDS011;4063;48.140;10.250;2023-12-29T06:54:51;4.17;;;3.43;;
8040;SDS011;4063;48.140;10.250;2023-12-29T06:57:23;3.80;;;3.33;;
8040;SDS011;4063;48.140;10.250;2023-12-29T06:59:54;5.03;;;3.90;;
8040;SDS011;4063;48.140;10.250;2023-12-29T07:02:20;4.33;;;3.40;;
8040;SDS011;4063;48.140;10.250;2023-12-29T07:04:49;4.40;;;3.67;;
8040;SDS011;4063;48.140;10.250;2023-12-29T07:07:23;4.03;;;3.40;;
8040;SDS011;4063;48.140;10.250;2023-12-29T07:09:49;5.70;;;4.13;;
8040;SDS011;4063;48.140;10.250;2023-12-29T07:12:15;6.03;;;4.20;;
8040;SDS011;4063;48.140;10.250;2023-12-29T07:14:41;6.00;;;3.90;;
8040;SDS011;4063;48.140;10.250;2023-12-29T07:17:07;5.53;;;3.97;;
8040;SDS011;4063;48.140;10.250;2023-12-29T07:19:36;4.57;;;3.67;;
8040;SDS011;4063;48.140;10.250;2023-12-29T07:22:03;5.23;;;4.30;;
8040;SDS011;4063;48.140;10.250;2023-12-29T07:24:32;4.83;;;3.87;;
8040;SDS011;4063;48.140;10.250;2023-12-29T07:26:58;4.43;;;3.70;;
8040;SDS011;4063;48.140;10.250;2023-12-29T07:29:24;4.60;;;3.67;;
8040;SDS011;4063;48.140;10.250;2023-12-29T07:31:53;5.27;;;3.90;;
8040;SDS011;4063;48.140;10.250;2023-12-29T07:34:19;5.90;;;4.00;;
8040;SDS011;4063;48.140;10.250;2023-12-29T07:36:46;5.10;;;4.20;;
8040;SDS011;4063;48.140;10.250;2023-12-29T07:39:12;4.13;;;3.73;;
8040;SDS011;4063;48.140;10.250;2023-12-29T07:41:41;4.03;;;3.63;;
8040;SDS011;4063;48.140;10.250;2023-12-29T07:44:07;5.27;;;4.00;;
8040;SDS011;4063;48.140;10.250;2023-12-29T07:46:33;4.40;;;3.73;;
8040;SDS011;4063;48.140;10.250;2023-12-29T07:48:59;6.07;;;3.80;;
8040;SDS011;4063;48.140;10.250;2023-12-29T07:51:25;5.67;;;3.53;;
8040;SDS011;4063;48.140;10.250;2023-12-29T07:53:51;3.77;;;3.47;;
8040;SDS011;4063;48.140;10.250;2023-12-29T07:56:17;4.83;;;3.43;;
8040;SDS011;4063;48.140;10.250;2023-12-29T07:58:44;5.67;;;3.40;;
8040;SDS011;4063;48.140;10.250;2023-12-29T08:01:12;5.23;;;3.30;;
8040;SDS011;4063;48.140;10.250;2023-12-29T08:03:39;5.57;;;3.67;;
8040;SDS011;4063;48.140;10.250;2023-12-29T08:06:05;5.30;;;3.27;;
8040;SDS011;4063;48.140;10.250;2023-12-29T08:08:31;4.70;;;3.80;;
8040;SDS011;4063;48.140;10.250;2023-12-29T08:10:57;4.60;;;3.80;;
8040;SDS011;4063;48.140;10.250;2023-12-29T08:13:23;3.97;;;3.47;;
8040;SDS011;4063;48.140;10.250;2023-12-29T08:15:51;5.33;;;3.80;;
8040;SDS011;4063;48.140;10.250;2023-12-29T08:18:16;3.83;;;3.47;;
8040;SDS011;4063;48.140;10.250;2023-12-29T08:20:43;9.70;;;4.40;;
8040;SDS011;4063;48.140;10.250;2023-12-29T08:23:09;5.70;;;4.10;;
8040;SDS011;4063;48.140;10.250;2023-12-29T08:25:35;4.47;;;3.90;;
8040;SDS011;4063;48.140;10.250;2023-12-29T08:28:02;5.60;;;5.03;;
8040;SDS011;4063;48.140;10.250;2023-12-29T08:30:28;4.57;;;3.87;;
8040;SDS011;4063;48.140;10.250;2023-12-29T08:32:54;4.50;;;3.70;;
8040;SDS011;4063;48.140;10.250;2023-12-29T08:35:20;3.53;;;3.23;;
8040;SDS011;4063;48.140;10.250;2023-12-29T08:37:46;4.30;;;3.80;;
8040;SDS011;4063;48.140;10.250;2023-12-29T08:40:12;6.63;;;3.47;;
8040;SDS011;4063;48.140;10.250;2023-12-29T08:42:38;3.73;;;3.03;;
8040;SDS011;4063;48.140;10.250;2023-12-29T08:45:04;4.00;;;3.60;;
8040;SDS011;4063;48.140;10.250;2023-12-29T08:47:30;3.87;;;3.27;;
8040;SDS011;4063;48.140;10.250;2023-12-29T08:49:56;3.37;;;3.07;;
8040;SDS011;4063;48.140;10.250;2023-12-29T08:52:22;4.07;;;3.53;;
8040;SDS011;4063;48.140;10.250;2023-12-29T08:54:48;4.40;;;3.23;;
8040;SDS011;4063;48.140;10.250;2023-12-29T08:57:14;3.47;;;3.00;;
8040;SDS011;4063;48.140;10.250;2023-12-29T08:59:40;3.57;;;2.73;;
8040;SDS011;4063;48.140;10.250;2023-12-29T09:02:06;3.47;;;3.17;;
8040;SDS011;4063;48.140;10.250;2023-12-29T09:04:32;3.90;;;3.10;;
8040;SDS011;4063;48.140;10.250;2023-12-29T09:06:58;5.80;;;3.20;;
8040;SDS011;4063;48.140;10.250;2023-12-29T09:09:24;3.50;;;2.83;;
8040;SDS011;4063;48.140;10.250;2023-12-29T09:11:50;3.33;;;3.03;;
8040;SDS011;4063;48.140;10.250;2023-12-29T09:14:16;3.93;;;3.23;;
8040;SDS011;4063;48.140;10.250;2023-12-29T09:16:42;4.37;;;2.90;;
8040;SDS011;4063;48.140;10.250;2023-12-29T09:19:11;4.00;;;3.60;;
8040;SDS011;4063;48.140;10.250;2023-12-29T09:21:37;3.07;;;2.80;;
8040;SDS011;4063;48.140;10.250;2023-12-29T09:24:03;3.20;;;2.90;;
8040;SDS011;4063;48.140;10.250;2023-12-29T09:26:29;3.50;;;3.17;;
8040;SDS011;4063;48.140;10.250;2023-12-29T09:28:55;3.43;;;2.80;;
8040;SDS011;4063;48.140;10.250;2023-12-29T09:31:21;4.00;;;2.93;;
8040;SDS011;4063;48.140;10.250;2023-12-29T09:33:47;3.73;;;2.93;;
8040;SDS011;4063;48.140;10.250;2023-12-29T09:36:13;4.30;;;2.90;;
8040;SDS011;4063;48.140;10.250;2023-12-29T09:38:39;3.17;;;2.67;;
8040;SDS011;4063;48.140;10.250;2023-12-29T09:41:09;3.57;;;2.73;;
8040;SDS011;4063;48.140;10.250;2023-12-29T09:43:36;3.80;;;2.97;;
8040;SDS011;4063;48.140;10.250;2023-12-29T09:46:02;3.83;;;3.03;;
8040;SDS011;4063;48.140;10.250;2023-12-29T09:48:29;4.07;;;2.93;;
8040;SDS011;4063;48.140;10.250;2023-12-29T09:50:57;4.80;;;3.03;;
8040;SDS011;4063;48.140;10.250;2023-12-29T09:53:23;3.50;;;2.90;;
8040;SDS011;4063;48.140;10.250;2023-12-29T09:55:49;3.10;;;2.80;;
8040;SDS011;4063;48.140;10.250;2023-12-29T09:58:17;3.40;;;3.10;;
8040;SDS011;4063;48.140;10.250;2023-12-29T10:00:46;3.90;;;3.00;;
8040;SDS011;4063;48.140;10.250;2023-12-29T10:03:12;3.53;;;3.00;;
8040;SDS011;4063;48.140;10.250;2023-12-29T10:05:38;3.73;;;3.30;;
8040;SDS011;4063;48.140;10.250;2023-12-29T10:08:04;3.90;;;3.20;;
8040;SDS011;4063;48.140;10.250;2023-12-29T10:10:31;3.53;;;2.83;;
8040;SDS011;4063;48.140;10.250;2023-12-29T10:12:57;3.40;;;3.10;;
8040;SDS011;4063;48.140;10.250;2023-12-29T10:15:30;3.20;;;2.60;;
8040;SDS011;4063;48.140;10.250;2023-12-29T10:21:11;3.20;;;2.90;;
8040;SDS011;4063;48.140;10.250;2023-12-29T10:23:17;3.67;;;3.23;;
8040;SDS011;4063;48.140;10.250;2023-12-29T10:25:45;3.10;;;2.80;;
8040;SDS011;4063;48.140;10.250;2023-12-29T10:28:11;3.77;;;3.43;;
8040;SDS011;4063;48.140;10.250;2023-12-29T10:30:38;4.37;;;3.00;;
8040;SDS011;4063;48.140;10.250;2023-12-29T10:33:05;3.30;;;3.00;;
8040;SDS011;4063;48.140;10.250;2023-12-29T10:35:31;2.83;;;2.50;;
8040;SDS011;4063;48.140;10.250;2023-12-29T10:38:09;3.77;;;2.87;;
8040;SDS011;4063;48.140;10.250;2023-12-29T10:40:38;4.73;;;3.10;;
8040;SDS011;4063;48.140;10.250;2023-12-29T10:43:04;2.93;;;2.63;;
8040;SDS011;4063;48.140;10.250;2023-12-29T10:45:32;3.50;;;2.83;;
8040;SDS011;4063;48.140;10.250;2023-12-29T10:48:00;3.87;;;2.80;;
8040;SDS011;4063;48.140;10.250;2023-12-29T10:50:26;4.80;;;2.87;;
8040;SDS011;4063;48.140;10.250;2023-12-29T10:53:11;3.20;;;2.83;;
8040;SDS011;4063;48.140;10.250;2023-12-29T10:55:37;3.23;;;2.43;;
8040;SDS011;4063;48.140;10.250;2023-12-29T10:58:03;4.37;;;2.80;;
8040;SDS011;4063;48.140;10.250;2023-12-29T11:00:31;4.13;;;2.90;;
8040;SDS011;4063;48.140;10.250;2023-12-29T11:02:59;3.73;;;3.23;;
8040;SDS011;4063;48.140;10.250;2023-12-29T11:05:26;3.67;;;2.60;;
8040;SDS011;4063;48.140;10.250;2023-12-29T11:07:52;4.17;;;3.50;;
8040;SDS011;4063;48.140;10.250;2023-12-29T11:10:20;3.43;;;2.63;;
8040;SDS011;4063;48.140;10.250;2023-12-29T11:12:47;3.10;;;2.80;;
8040;SDS011;4063;48.140;10.250;2023-12-29T11:15:13;3.30;;;3.00;;
8040;SDS011;4063;48.140;10.250;2023-12-29T11:17:39;4.80;;;2.63;;
8040;SDS011;4063;48.140;10.250;2023-12-29T11:20:14;2.97;;;2.60;;
8040;SDS011;4063;48.140;10.250;2023-12-29T11:22:41;3.20;;;2.90;;
8040;SDS011;4063;48.140;10.250;2023-12-29T11:25:07;3.47;;;2.70;;
8040;SDS011;4063;48.140;10.250;2023-12-29T11:27:34;4.40;;;2.83;;
8040;SDS011;4063;48.140;10.250;2023-12-29T11:30:01;3.30;;;2.70;;
8040;SDS011;4063;48.140;10.250;2023-12-29T11:32:32;3.10;;;2.70;;
8040;SDS011;4063;48.140;10.250;2023-12-29T11:35:10;3.40;;;2.77;;
8040;SDS011;4063;48.140;10.250;2023-12-29T11:37:49;3.83;;;2.80;;
8040;SDS011;4063;48.140;10.250;2023-12-29T11:40:21;3.40;;;2.50;;
8040;SDS011;4063;48.140;10.250;2023-12-29T11:42:49;3.80;;;2.60;;
8040;SDS011;4063;48.140;10.250;2023-12-29T11:45:24;2.90;;;2.50;;
8040;SDS011;4063;48.140;10.250;2023-12-29T11:47:51;2.53;;;2.00;;
8040;SDS011;4063;48.140;10.250;2023-12-29T11:50:40;2.40;;;2.20;;
8040;SDS011;4063;48.140;10.250;2023-12-29T11:53:06;2.30;;;2.10;;
8040;SDS011;4063;48.140;10.250;2023-12-29T11:55:36;2.10;;;1.90;;
8040;SDS011;4063;48.140;10.250;2023-12-29T11:58:03;1.83;;;1.70;;
8040;SDS011;4063;48.140;10.250;2023-12-29T12:00:40;2.67;;;2.20;;
8040;SDS011;4063;48.140;10.250;2023-12-29T12:03:13;2.13;;;1.93;;
8040;SDS011;4063;48.140;10.250;2023-12-29T12:05:46;2.33;;;2.10;;
8040;SDS011;4063;48.140;10.250;2023-12-29T12:08:26;4.50;;;2.33;;
8040;SDS011;4063;48.140;10.250;2023-12-29T12:10:53;3.13;;;2.30;;
8040;SDS011;4063;48.140;10.250;2023-12-29T12:19:04;2.90;;;2.10;;
8040;SDS011;4063;48.140;10.250;2023-12-29T12:21:30;2.43;;;2.00;;
8040;SDS011;4063;48.140;10.250;2023-12-29T12:23:56;2.30;;;2.10;;
8040;SDS011;4063;48.140;10.250;2023-12-29T12:26:23;3.23;;;2.20;;
8040;SDS011;4063;48.140;10.250;2023-12-29T12:28:52;2.20;;;2.00;;
8040;SDS011;4063;48.140;10.250;2023-12-29T12:31:18;2.17;;;1.80;;
8040;SDS011;4063;48.140;10.250;2023-12-29T12:33:52;1.80;;;1.60;;
8040;SDS011;4063;48.140;10.250;2023-12-29T12:36:20;2.37;;;2.13;;
8040;SDS011;4063;48.140;10.250;2023-12-29T12:38:55;2.33;;;2.13;;
8040;SDS011;4063;48.140;10.250;2023-12-29T12:41:21;1.90;;;1.80;;
8040;SDS011;4063;48.140;10.250;2023-12-29T12:43:59;1.80;;;1.70;;
8040;SDS011;4063;48.140;10.250;2023-12-29T12:46:27;2.30;;;2.10;;
8040;SDS011;4063;48.140;10.250;2023-12-29T12:48:58;1.80;;;1.70;;
8040;SDS011;4063;48.140;10.250;2023-12-29T12:51:25;1.70;;;1.60;;
8040;SDS011;4063;48.140;10.250;2023-12-29T12:53:51;2.23;;;2.03;;
8040;SDS011;4063;48.140;10.250;2023-12-29T12:56:18;1.90;;;1.80;;
8040;SDS011;4063;48.140;10.250;2023-12-29T12:58:45;3.33;;;1.80;;
8040;SDS011;4063;48.140;10.250;2023-12-29T13:01:11;1.93;;;1.80;;
8040;SDS011;4063;48.140;10.250;2023-12-29T13:03:38;2.20;;;2.00;;
8040;SDS011;4063;48.140;10.250;2023-12-29T13:06:05;4.03;;;2.10;;
8040;SDS011;4063;48.140;10.250;2023-12-29T13:08:32;1.90;;;1.80;;
8040;SDS011;4063;48.140;10.250;2023-12-29T13:10:58;2.33;;;1.80;;
8040;SDS011;4063;48.140;10.250;2023-12-29T13:13:35;1.73;;;1.63;;
8040;SDS011;4063;48.140;10.250;2023-12-29T13:16:01;6.27;;;1.90;;
8040;SDS011;4063;48.140;10.250;2023-12-29T13:18:29;2.30;;;1.60;;
8040;SDS011;4063;48.140;10.250;2023-12-29T13:20:59;2.00;;;1.80;;
8040;SDS011;4063;48.140;10.250;2023-12-29T13:23:26;1.83;;;1.70;;
8040;SDS011;4063;48.140;10.250;2023-12-29T13:25:54;2.03;;;1.80;;
8040;SDS011;4063;48.140;10.250;2023-12-29T13:28:20;2.87;;;2.00;;
8040;SDS011;4063;48.140;10.250;2023-12-29T13:30:46;2.73;;;1.80;;
8040;SDS011;4063;48.140;10.250;2023-12-29T13:33:18;2.60;;;1.70;;
8040;SDS011;4063;48.140;10.250;2023-12-29T13:35:50;2.10;;;1.90;;
8040;SDS011;4063;48.140;10.250;2023-12-29T13:38:26;2.13;;;1.93;;
8040;SDS011;4063;48.140;10.250;2023-12-29T13:43:19;1.83;;;1.70;;
8040;SDS011;4063;48.140;10.250;2023-12-29T13:45:45;2.70;;;2.20;;
8040;SDS011;4063;48.140;10.250;2023-12-29T13:48:13;3.63;;;1.70;;
8040;SDS011;4063;48.140;10.250;2023-12-29T13:50:39;1.80;;;1.70;;
8040;SDS011;4063;48.140;10.250;2023-12-29T13:53:06;2.20;;;2.00;;
8040;SDS011;4063;48.140;10.250;2023-12-29T13:55:32;1.90;;;1.80;;
8040;SDS011;4063;48.140;10.250;2023-12-29T13:57:58;3.17;;;2.30;;
8040;SDS011;4063;48.140;10.250;2023-12-29T14:00:25;2.00;;;1.80;;
8040;SDS011;4063;48.140;10.250;2023-12-29T14:08:10;2.17;;;1.97;;
8040;SDS011;4063;48.140;10.250;2023-12-29T14:10:43;2.63;;;2.20;;
8040;SDS011;4063;48.140;10.250;2023-12-29T14:13:10;5.57;;;2.60;;
8040;SDS011;4063;48.140;10.250;2023-12-29T14:15:44;5.93;;;4.87;;
8040;SDS011;4063;48.140;10.250;2023-12-29T14:20:48;2.93;;;2.13;;
8040;SDS011;4063;48.140;10.250;2023-12-29T14:23:17;2.50;;;2.03;;
8040;SDS011;4063;48.140;10.250;2023-12-29T14:25:43;2.40;;;2.20;;
8040;SDS011;4063;48.140;10.250;2023-12-29T14:28:16;3.40;;;1.80;;
8040;SDS011;4063;48.140;10.250;2023-12-29T14:30:42;2.27;;;2.07;;
8040;SDS011;4063;48.140;10.250;2023-12-29T14:33:08;3.73;;;2.07;;
8040;SDS011;4063;48.140;10.250;2023-12-29T14:35:34;2.67;;;1.70;;
8040;SDS011;4063;48.140;10.250;2023-12-29T14:38:01;2.20;;;2.00;;
8040;SDS011;4063;48.140;10.250;2023-12-29T14:40:27;2.80;;;2.07;;
8040;SDS011;4063;48.140;10.250;2023-12-29T14:42:53;2.00;;;1.80;;
8040;SDS011;4063;48.140;10.250;2023-12-29T14:45:19;2.57;;;2.30;;
8040;SDS011;4063;48.140;10.250;2023-12-29T14:47:45;2.50;;;2.00;;
8040;SDS011;4063;48.140;10.250;2023-12-29T14:50:13;3.17;;;2.00;;
8040;SDS011;4063;48.140;10.250;2023-12-29T14:52:39;2.10;;;1.90;;
8040;SDS011;4063;48.140;10.250;2023-12-29T14:55:05;5.10;;;2.17;;
8040;SDS011;4063;48.140;10.250;2023-12-29T14:57:32;2.63;;;1.87;;
8040;SDS011;4063;48.140;10.250;2023-12-29T14:59:58;2.37;;;1.93;;
8040;SDS011;4063;48.140;10.250;2023-12-29T15:02:24;4.10;;;2.03;;
8040;SDS011;4063;48.140;10.250;2023-12-29T15:04:50;2.57;;;2.20;;
8040;SDS011;4063;48.140;10.250;2023-12-29T15:07:16;2.63;;;2.30;;
8040;SDS011;4063;48.140;10.250;2023-12-29T15:09:43;2.57;;;2.17;;
8040;SDS011;4063;48.140;10.250;2023-12-29T15:12:09;4.53;;;3.17;;
8040;SDS011;4063;48.140;10.250;2023-12-29T15:14:35;2.40;;;2.20;;
8040;SDS011;4063;48.140;10.250;2023-12-29T15:17:01;2.20;;;2.00;;
8040;SDS011;4063;48.140;10.250;2023-12-29T15:19:27;2.80;;;1.70;;
8040;SDS011;4063;48.140;10.250;2023-12-29T15:21:53;3.90;;;2.00;;
8040;SDS011;4063;48.140;10.250;2023-12-29T15:24:20;1.87;;;1.53;;
8040;SDS011;4063;48.140;10.250;2023-12-29T15:26:46;2.20;;;2.00;;
8040;SDS011;4063;48.140;10.250;2023-12-29T15:29:12;2.20;;;2.00;;